EDT,Max TemperatureF,Mean TemperatureF,Min TemperatureF,Max Dew PointF,MeanDew PointF,Min DewpointF,Max Humidity, Mean Humidity, Min Humidity, Max Sea Level PressureIn, Mean Sea Level PressureIn, Min Sea Level PressureIn, Max VisibilityMiles, Mean VisibilityMiles, Min VisibilityMiles, Max Wind SpeedMPH, Mean Wind SpeedMPH, Max Gust SpeedMPH,PrecipitationIn, CloudCover, Events, WindDirDegrees
2013-3-1,32,29,26,29,24,19,93,82,72,30.08,29.99,29.92,10,9,3,13,10,,0.00,8,Snow,8
2013-3-2,28,26,24,20,19,17,80,73,64,30.07,30.05,30.01,10,9,6,14,9,17,0.00,8,Snow,331
2013-3-3,30,26,21,17,15,12,78,66,54,30.07,30.04,29.99,10,10,6,13,8,,0.00,6,Snow,318
2013-3-4,37,27,17,22,17,14,88,68,46,30.17,30.10,30.06,10,10,10,7,4,,0.00,0,,284
2013-3-5,36,32,28,27,24,20,93,78,57,30.09,29.81,29.66,10,7,0,25,14,34,0.07,8,Fog-Rain-Snow,59
2013-3-6,37,32,28,29,27,25,93,80,70,30.22,30.04,29.69,10,9,1,25,16,33,0.01,8,Snow,335
2013-3-7,39,34,30,31,27,22,89,75,61,30.38,30.30,30.20,10,9,4,13,7,,0.00,8,,303
2013-3-8,43,34,26,27,23,19,82,63,45,30.49,30.43,30.39,10,10,10,8,4,,0.00,1,,46
2013-3-9,50,39,28,36,30,25,88,71,54,30.40,30.24,30.02,10,10,9,13,7,,0.00,1,,138
2013-3-10,62,54,46,43,38,32,61,54,44,30.01,29.92,29.80,10,10,10,24,13,34,0.00,2,Rain,164
2013-3-11,57,47,36,48,41,30,88,80,51,29.80,29.67,29.51,10,9,2,33,23,46,0.38,8,Rain,213
2013-3-12,36,33,30,31,28,23,89,80,72,29.97,29.88,29.78,10,9,2,20,16,26,0.00,8,Snow,247
2013-3-13,32,30,25,27,22,16,93,78,64,30.25,30.06,29.91,10,6,0,22,15,32,0.00,7,Fog-Snow,277
2013-3-14,39,30,21,23,20,16,78,66,49,30.29,30.23,30.13,10,10,10,15,11,23,0.00,0,,260
2013-3-15,46,38,30,39,32,22,100,81,63,30.11,29.93,29.80,10,7,2,14,7,18,0.06,5,Rain,231
2013-3-16,41,36,30,39,34,28,100,94,89,30.05,29.79,29.66,9,3,0,18,7,22,0.01,8,Fog-Rain,32
2013-3-17,32,29,26,28,22,17,93,74,64,30.22,30.14,30.04,10,10,8,16,10,21,0.00,6,,24
2013-3-18,43,36,28,41,33,20,100,89,72,30.10,29.72,29.55,10,5,2,28,13,33,0.17,8,Rain,106
2013-3-19,35,30,24,32,20,15,87,67,52,29.99,29.85,29.72,10,10,7,31,23,43,0.00,6,Snow,256
2013-3-20,32,24,18,19,14,7,69,61,47,29.99,29.96,29.93,10,10,2,20,14,28,0.00,5,Snow,275
2013-3-21,30,24,17,19,15,9,81,69,54,29.99,29.94,29.91,10,9,5,18,11,25,0.00,6,Snow,278
2013-3-22,41,30,21,20,18,15,75,60,43,30.03,30.00,29.97,10,10,10,15,9,22,0.00,3,,275
2013-3-23,44,32,23,23,21,19,85,66,47,30.08,30.04,30.00,10,10,7,12,4,,0.00,1,,344
2013-3-24,35,31,28,24,21,19,78,68,54,29.97,29.77,29.51,10,10,8,29,14,40,0.00,5,Snow,60
2013-3-25,33,32,30,31,29,25,93,88,75,29.90,29.64,29.43,8,2,0,21,16,29,0.09,8,Fog-Snow,358
2013-3-26,39,34,32,32,29,27,89,80,70,30.15,30.04,29.91,10,10,3,15,8,,0.01,7,Snow,286
2013-3-27,44,36,30,29,28,26,88,73,55,30.25,30.20,30.14,10,10,10,20,12,26,0.00,6,,276
2013-3-28,50,37,26,30,25,21,81,63,44,30.30,30.26,30.24,10,10,10,16,10,21,0.00,1,,268
2013-3-29,51,39,28,28,24,20,85,59,34,30.30,30.26,30.20,10,10,6,12,6,18,0.00,0,,268
2013-3-30,55,42,28,32,27,22,85,57,34,30.23,30.12,29.93,10,10,10,15,3,21,0.00,0,,214
2013-3-31,59,47,37,45,37,28,90,67,42,29.91,29.75,29.67,10,9,4,18,10,29,0.00,5,Rain,224